Time;durP1;ratioP1;P1;durP2;ratioP2;P2;SDS_P1;SDS_P2;PMS_P1;PMS_P2;Temp;Humidity;BMP_temperature;BMP_pressure;BME280_temperature;BME280_humidity;BME280_pressure;Samples;Min_cycle;Max_cycle;Signal;HPM_P1;HPM_P2
2024/01/17 00:00:39;;;;;;;17.20;13.10;;;-2.90;1.00;;;;;;5112599;28;20173;-63
2024/01/17 00:03:06;;;;;;;16.03;13.70;;;-3.00;1.00;;;;;;5113197;28;20247;-64
2024/01/17 00:05:33;;;;;;;15.40;13.83;;;-3.00;1.00;;;;;;5112755;28;20168;-63
2024/01/17 00:07:59;;;;;;;15.77;14.20;;;-3.00;1.00;;;;;;5112697;28;20197;-64
2024/01/17 00:10:24;;;;;;;20.00;14.53;;;-3.00;1.00;;;;;;5113230;28;20229;-64
2024/01/17 00:12:50;;;;;;;18.00;14.20;;;-3.10;1.00;;;;;;5113147;28;20177;-63
2024/01/17 00:15:18;;;;;;;16.23;13.47;;;-3.00;1.00;;;;;;5112510;28;20177;-61
2024/01/17 00:17:45;;;;;;;15.87;14.03;;;-3.10;1.00;;;;;;5112813;28;20199;-63
2024/01/17 00:20:11;;;;;;;14.17;12.93;;;-3.10;1.00;;;;;;5112705;28;20551;-63
2024/01/17 00:22:37;;;;;;;20.90;13.80;;;-3.10;1.00;;;;;;5112653;28;20217;-63
2024/01/17 00:25:03;;;;;;;16.53;13.30;;;-3.10;1.00;;;;;;5115789;28;20210;-63
2024/01/17 00:27:29;;;;;;;14.63;13.20;;;-3.20;1.00;;;;;;5116388;28;20215;-63
2024/01/17 00:29:57;;;;;;;16.00;13.53;;;-3.20;1.00;;;;;;5116302;28;20165;-63
2024/01/17 00:32:26;;;;;;;14.73;13.20;;;-3.20;1.00;;;;;;5114392;28;20229;-62
2024/01/17 00:34:52;;;;;;;14.33;12.93;;;-3.20;1.00;;;;;;5116335;28;20168;-64
2024/01/17 00:37:18;;;;;;;14.27;12.97;;;-3.30;1.00;;;;;;5115910;28;20196;-63
2024/01/17 00:39:44;;;;;;;16.47;13.60;;;-3.30;1.00;;;;;;5116307;28;20177;-63
2024/01/17 00:42:10;;;;;;;15.67;13.93;;;-3.40;1.00;;;;;;5115765;28;20176;-63
2024/01/17 00:44:39;;;;;;;16.77;14.00;;;-3.50;1.00;;;;;;5114506;28;20180;-64
2024/01/17 00:47:05;;;;;;;15.57;13.63;;;-3.50;1.00;;;;;;5115482;28;20196;-64
2024/01/17 00:49:31;;;;;;;15.23;13.70;;;-3.50;1.00;;;;;;5115969;28;20610;-63
2024/01/17 00:51:57;;;;;;;16.80;13.57;;;-3.60;1.00;;;;;;5115677;28;20632;-64
2024/01/17 00:54:23;;;;;;;16.60;14.57;;;-3.50;1.00;;;;;;5116053;28;20263;-63
2024/01/17 00:56:48;;;;;;;17.83;13.33;;;-3.50;5.60;;;;;;5115717;28;20544;-62
2024/01/17 00:59:14;;;;;;;14.93;12.97;;;-3.50;10.80;;;;;;5115784;28;20204;-64
2024/01/17 01:01:40;;;;;;;14.27;12.93;;;-3.50;5.20;;;;;;5115041;28;20568;-64
2024/01/17 01:04:08;;;;;;;15.00;13.50;;;-3.50;1.00;;;;;;5115531;28;20641;-63
2024/01/17 01:06:34;;;;;;;15.53;13.17;;;-3.40;21.70;;;;;;5115401;28;20267;-63
2024/01/17 01:09:00;;;;;;;14.57;13.23;;;-3.40;1.00;;;;;;5115610;28;20629;-63
2024/01/17 01:11:32;;;;;;;14.97;13.43;;;-3.40;1.00;;;;;;5115243;28;20185;-63
2024/01/17 01:13:59;;;;;;;13.70;12.10;;;-3.50;1.00;;;;;;5115258;28;20202;-63
2024/01/17 01:16:25;;;;;;;14.90;13.40;;;-3.40;34.40;;;;;;5115070;28;20260;-63
2024/01/17 01:18:50;;;;;;;17.33;13.33;;;-3.40;13.00;;;;;;5115029;27;20289;-63
2024/01/17 01:21:16;;;;;;;16.73;13.47;;;-3.50;3.70;;;;;;5115579;28;20591;-63
2024/01/17 01:23:42;;;;;;;15.60;14.03;;;-3.50;8.80;;;;;;5115244;27;20181;-63
2024/01/17 01:26:08;;;;;;;15.03;13.57;;;-3.60;8.20;;;;;;5115028;28;20212;-64
2024/01/17 01:28:34;;;;;;;13.70;12.43;;;-3.60;30.40;;;;;;5114870;27;20687;-63
2024/01/17 01:30:59;;;;;;;15.37;14.03;;;-3.60;51.90;;;;;;5114392;28;20546;-63
2024/01/17 01:33:25;;;;;;;15.17;13.57;;;-3.60;55.90;;;;;;5113632;28;20195;-63
2024/01/17 01:35:51;;;;;;;17.90;13.27;;;-3.60;59.60;;;;;;5115083;28;20179;-63
2024/01/17 01:38:16;;;;;;;15.60;13.23;;;-3.50;45.20;;;;;;5114785;27;20260;-63
2024/01/17 01:40:42;;;;;;;18.67;13.67;;;-3.60;35.20;;;;;;5114816;28;20184;-63
2024/01/17 01:43:24;;;;;;;16.17;14.10;;;-3.60;28.30;;;;;;5114812;28;20175;-64
2024/01/17 01:46:09;;;;;;;14.60;13.13;;;-3.70;34.00;;;;;;5114766;28;20625;-64
2024/01/17 01:48:35;;;;;;;17.67;12.23;;;-3.80;66.50;;;;;;5114623;28;20291;-63
2024/01/17 01:51:01;;;;;;;16.20;13.17;;;-3.80;95.50;;;;;;5114491;28;20185;-63
2024/01/17 01:53:30;;;;;;;14.53;13.03;;;-3.80;99.90;;;;;;5114491;28;20183;-63
2024/01/17 01:55:57;;;;;;;14.63;13.20;;;-3.70;94.10;;;;;;5114440;28;20195;-64
2024/01/17 01:58:23;;;;;;;15.17;13.67;;;-3.80;53.00;;;;;;5114404;28;20286;-64
2024/01/17 02:00:51;;;;;;;15.53;13.13;;;-3.80;74.70;;;;;;5114151;28;20181;-62
2024/01/17 02:03:17;;;;;;;15.67;13.93;;;-3.80;91.40;;;;;;5114327;28;20173;-63
2024/01/17 02:05:44;;;;;;;16.63;13.73;;;-3.80;82.80;;;;;;5114168;28;20214;-63
2024/01/17 02:08:11;;;;;;;16.23;13.83;;;-3.90;79.80;;;;;;5114105;28;20270;-63
2024/01/17 02:10:37;;;;;;;15.67;13.97;;;-3.90;97.60;;;;;;5114130;27;20176;-63
2024/01/17 02:13:04;;;;;;;15.57;14.07;;;-3.90;83.40;;;;;;5113997;28;20172;-63
2024/01/17 02:15:30;;;;;;;14.77;13.30;;;-4.00;95.60;;;;;;5114062;28;20172;-64
2024/01/17 02:17:56;;;;;;;14.47;12.97;;;-4.00;99.90;;;;;;5113611;28;20296;-64
2024/01/17 02:20:22;;;;;;;14.43;13.13;;;-4.00;99.40;;;;;;5114070;28;20232;-63
2024/01/17 02:22:48;;;;;;;13.90;12.60;;;-4.00;99.90;;;;;;5114469;28;20172;-63
2024/01/17 02:25:13;;;;;;;16.53;13.40;;;-4.00;99.90;;;;;;5113782;28;20641;-62
2024/01/17 02:27:39;;;;;;;16.20;14.43;;;-4.00;99.90;;;;;;5113724;28;20201;-63
2024/01/17 02:30:09;;;;;;;14.60;13.30;;;-4.00;99.90;;;;;;5113858;28;20176;-63
2024/01/17 02:32:36;;;;;;;14.23;12.93;;;-4.00;99.90;;;;;;5113383;28;20187;-63
2024/01/17 02:35:02;;;;;;;14.97;13.43;;;-3.90;99.90;;;;;;5113608;28;20168;-63
2024/01/17 02:37:29;;;;;;;15.80;14.20;;;-3.90;99.90;;;;;;5113464;28;20269;-63
2024/01/17 02:39:55;;;;;;;15.27;13.90;;;-3.90;99.90;;;;;;5113549;28;20176;-63
2024/01/17 02:42:21;;;;;;;16.00;13.53;;;-3.80;99.90;;;;;;5113683;28;20256;-63
2024/01/17 02:44:47;;;;;;;14.90;13.50;;;-3.90;87.20;;;;;;5113960;28;20237;-63
2024/01/17 02:47:13;;;;;;;16.90;14.43;;;-3.90;95.70;;;;;;5112706;28;20680;-63
2024/01/17 02:49:39;;;;;;;15.17;13.77;;;-3.90;99.90;;;;;;5113437;28;20237;-63
2024/01/17 02:52:05;;;;;;;15.70;14.03;;;-3.90;99.90;;;;;;5113363;28;20268;-63
2024/01/17 02:54:31;;;;;;;15.80;14.10;;;-3.80;99.90;;;;;;5113368;28;20679;-63
2024/01/17 02:56:57;;;;;;;15.67;13.67;;;-3.80;99.90;;;;;;5113598;28;20324;-63
2024/01/17 02:59:23;;;;;;;15.67;14.27;;;-3.80;99.90;;;;;;5113709;28;20712;-63
2024/01/17 03:01:49;;;;;;;15.43;14.03;;;-3.70;99.90;;;;;;5113108;28;20204;-63
2024/01/17 03:04:15;;;;;;;16.57;14.77;;;-3.80;99.90;;;;;;5113392;28;20172;-63
2024/01/17 03:06:42;;;;;;;15.83;14.17;;;-3.90;99.90;;;;;;5113360;28;20237;-64
2024/01/17 03:09:10;;;;;;;18.90;13.63;;;-3.90;99.90;;;;;;5113811;28;20172;-63
2024/01/17 03:11:36;;;;;;;15.40;13.87;;;-3.90;99.90;;;;;;5113606;28;20629;-63
2024/01/17 03:14:03;;;;;;;15.23;13.77;;;-3.90;99.90;;;;;;5113342;28;20251;-64
2024/01/17 03:16:29;;;;;;;15.33;14.00;;;-3.90;99.90;;;;;;5112947;28;20256;-63
2024/01/17 03:18:54;;;;;;;20.13;14.30;;;-3.90;99.90;;;;;;5113190;28;20333;-63
2024/01/17 03:21:20;;;;;;;15.53;14.03;;;-3.90;99.90;;;;;;5113393;28;20176;-64
2024/01/17 03:23:46;;;;;;;15.67;14.27;;;-3.90;99.90;;;;;;5113196;28;20239;-63
2024/01/17 03:26:12;;;;;;;21.23;14.27;;;-3.90;99.90;;;;;;5113264;28;20308;-63
2024/01/17 03:28:37;;;;;;;15.47;13.97;;;-3.90;99.90;;;;;;5112997;28;20195;-63
2024/01/17 03:31:03;;;;;;;16.20;14.60;;;-3.90;99.90;;;;;;5112749;28;20204;-62
2024/01/17 03:33:29;;;;;;;16.07;14.43;;;-3.80;99.90;;;;;;5113371;28;20176;-63
2024/01/17 03:35:55;;;;;;;19.80;15.37;;;-3.80;99.90;;;;;;5113071;28;20182;-63
2024/01/17 03:38:21;;;;;;;20.40;14.60;;;-3.80;99.90;;;;;;5112860;28;20657;-63
2024/01/17 03:40:47;;;;;;;16.23;14.50;;;-3.90;99.90;;;;;;5113186;28;20190;-63
2024/01/17 03:43:13;;;;;;;15.70;14.10;;;-4.00;99.90;;;;;;5111587;28;20199;-63
2024/01/17 03:45:39;;;;;;;18.53;14.97;;;-3.90;99.90;;;;;;5112991;28;20637;-64
2024/01/17 03:48:06;;;;;;;16.13;14.47;;;-4.00;99.90;;;;;;5112490;28;20199;-63
2024/01/17 03:50:33;;;;;;;15.80;14.20;;;-4.10;99.90;;;;;;5112755;28;20181;-64
2024/01/17 03:52:59;;;;;;;15.43;13.83;;;-4.00;99.90;;;;;;5113145;28;20157;-64
2024/01/17 03:55:25;;;;;;;17.20;14.30;;;-4.00;99.90;;;;;;5112712;28;20180;-64
2024/01/17 03:57:51;;;;;;;19.17;14.53;;;-4.00;99.90;;;;;;5114199;28;20204;-63
2024/01/17 04:00:17;;;;;;;17.33;14.80;;;-3.90;99.90;;;;;;5116585;28;20183;-64
2024/01/17 04:02:43;;;;;;;17.63;15.50;;;-3.90;99.90;;;;;;5116558;28;20648;-64
2024/01/17 04:05:08;;;;;;;17.27;15.50;;;-4.00;99.90;;;;;;5117016;28;20191;-63
2024/01/17 04:07:34;;;;;;;15.93;14.43;;;-4.00;99.90;;;;;;5116665;28;20277;-63
2024/01/17 04:10:00;;;;;;;17.77;15.87;;;-4.00;99.90;;;;;;5115895;28;20202;-63
2024/01/17 04:12:26;;;;;;;17.40;14.87;;;-4.10;99.90;;;;;;5116486;28;20237;-64
2024/01/17 04:14:51;;;;;;;19.43;15.77;;;-4.10;99.90;;;;;;5116234;28;20173;-64
2024/01/17 04:17:17;;;;;;;16.07;14.53;;;-4.00;99.90;;;;;;5116034;28;20200;-63
2024/01/17 04:19:43;;;;;;;18.60;15.00;;;-4.10;99.90;;;;;;5116446;28;20237;-62
2024/01/17 04:22:09;;;;;;;16.53;14.93;;;-4.10;99.90;;;;;;5116380;28;20195;-63
2024/01/17 04:24:34;;;;;;;16.23;14.73;;;-4.10;99.90;;;;;;5116264;28;20176;-64
2024/01/17 04:27:00;;;;;;;17.03;15.33;;;-4.10;99.90;;;;;;5116094;28;20185;-63
2024/01/17 04:29:26;;;;;;;18.60;15.43;;;-4.10;99.90;;;;;;5116476;27;20219;-63
2024/01/17 04:31:55;;;;;;;17.30;15.13;;;-4.00;99.90;;;;;;5115725;28;20597;-63
2024/01/17 04:34:21;;;;;;;17.03;15.40;;;-4.00;99.90;;;;;;5116006;28;20172;-63
2024/01/17 04:36:47;;;;;;;17.43;15.73;;;-4.00;99.90;;;;;;5116328;28;20770;-62
2024/01/17 04:39:14;;;;;;;16.77;14.97;;;-3.90;99.90;;;;;;5116456;28;20200;-63
2024/01/17 04:41:40;;;;;;;19.13;15.17;;;-3.90;99.90;;;;;;5114567;28;20217;-63
2024/01/17 04:44:06;;;;;;;17.37;15.60;;;-3.80;99.90;;;;;;5115859;28;20188;-63
2024/01/17 04:46:32;;;;;;;17.83;16.07;;;-3.80;99.90;;;;;;5115564;28;20168;-62
2024/01/17 04:48:59;;;;;;;17.43;15.47;;;-3.80;99.90;;;;;;5115841;28;20179;-64
2024/01/17 04:51:26;;;;;;;17.63;15.87;;;-3.80;99.90;;;;;;5115712;28;20192;-64
2024/01/17 04:53:51;;;;;;;20.07;15.33;;;-3.80;99.90;;;;;;5115693;28;20190;-63
2024/01/17 04:56:17;;;;;;;18.20;15.70;;;-3.80;99.90;;;;;;5115677;28;20172;-62
2024/01/17 04:58:43;;;;;;;20.37;16.40;;;-3.80;99.90;;;;;;5115451;28;20200;-63
2024/01/17 05:01:09;;;;;;;16.80;15.20;;;-3.80;99.90;;;;;;5115512;28;20172;-61
2024/01/17 05:03:35;;;;;;;17.67;15.83;;;-3.80;99.90;;;;;;5115588;28;20196;-63
2024/01/17 05:06:02;;;;;;;20.97;16.37;;;-3.80;99.90;;;;;;5115633;28;20198;-64
2024/01/17 05:08:28;;;;;;;20.13;16.27;;;-3.90;99.90;;;;;;5115206;27;20238;-63
2024/01/17 05:10:55;;;;;;;18.43;15.73;;;-3.90;99.90;;;;;;5114891;28;20196;-63
2024/01/17 05:13:20;;;;;;;20.63;16.10;;;-3.90;99.90;;;;;;5115062;28;20180;-63
2024/01/17 05:15:46;;;;;;;17.10;15.23;;;-3.90;99.90;;;;;;5115494;28;20278;-63
2024/01/17 05:18:13;;;;;;;22.80;16.43;;;-3.90;99.90;;;;;;5114738;28;20245;-63
2024/01/17 05:20:39;;;;;;;17.63;15.87;;;-3.90;99.90;;;;;;5115179;28;20172;-63
2024/01/17 05:23:04;;;;;;;24.33;17.13;;;-3.80;99.90;;;;;;5115118;28;20170;-63
2024/01/17 05:25:30;;;;;;;23.77;16.47;;;-3.80;99.90;;;;;;5115057;27;20263;-63
2024/01/17 05:27:56;;;;;;;21.37;16.00;;;-3.90;99.90;;;;;;5115328;28;20230;-63
2024/01/17 05:30:23;;;;;;;18.97;16.63;;;-3.80;99.90;;;;;;5115031;28;20181;-63
2024/01/17 05:32:49;;;;;;;19.30;15.93;;;-3.80;99.90;;;;;;5114760;28;20169;-63
2024/01/17 05:35:16;;;;;;;20.27;16.57;;;-3.90;99.90;;;;;;5115138;28;20188;-64
2024/01/17 05:37:42;;;;;;;18.40;16.47;;;-3.80;99.90;;;;;;5113381;28;20204;-63
2024/01/17 05:40:09;;;;;;;19.17;15.80;;;-3.80;99.90;;;;;;5114661;28;20175;-63
2024/01/17 05:42:36;;;;;;;20.97;17.00;;;-3.80;99.90;;;;;;5114776;28;20539;-63
2024/01/17 05:45:03;;;;;;;19.13;15.87;;;-3.70;99.90;;;;;;5114916;28;20153;-64
2024/01/17 05:47:30;;;;;;;17.87;16.10;;;-3.70;99.90;;;;;;5112992;28;20235;-63
2024/01/17 05:49:57;;;;;;;19.97;16.67;;;-3.70;99.90;;;;;;5114614;27;20203;-63
2024/01/17 05:52:23;;;;;;;19.63;16.13;;;-3.70;99.90;;;;;;5113085;28;20226;-63
2024/01/17 05:54:49;;;;;;;19.40;16.17;;;-3.70;99.90;;;;;;5114763;28;20509;-63
2024/01/17 05:57:15;;;;;;;18.43;15.90;;;-3.70;99.90;;;;;;5114562;28;20200;-64
2024/01/17 05:59:40;;;;;;;19.57;16.97;;;-3.70;99.90;;;;;;5114532;28;20288;-64
2024/01/17 06:02:06;;;;;;;18.40;15.63;;;-3.70;99.90;;;;;;5114018;28;20276;-63
2024/01/17 06:04:33;;;;;;;19.40;16.37;;;-3.70;99.90;;;;;;5114595;28;20218;-65
2024/01/17 06:06:59;;;;;;;18.67;16.67;;;-3.60;99.90;;;;;;5112915;28;20562;-63
2024/01/17 06:09:25;;;;;;;18.53;16.70;;;-3.60;99.90;;;;;;5112725;28;20259;-63
2024/01/17 06:11:51;;;;;;;18.50;15.80;;;-3.60;99.90;;;;;;5114026;28;20260;-63
2024/01/17 06:14:17;;;;;;;19.13;16.27;;;-3.50;99.90;;;;;;5114355;28;20176;-64
2024/01/17 06:16:44;;;;;;;21.93;15.43;;;-3.50;99.90;;;;;;5113723;28;20668;-63
2024/01/17 06:19:10;;;;;;;19.80;16.20;;;-3.40;99.90;;;;;;5114271;28;20287;-64
2024/01/17 06:21:36;;;;;;;19.03;16.00;;;-3.40;99.90;;;;;;5112909;28;20200;-64
2024/01/17 06:24:02;;;;;;;16.67;15.00;;;-3.30;78.70;;;;;;5114055;28;20219;-63
2024/01/17 06:26:27;;;;;;;19.17;14.73;;;-3.30;31.00;;;;;;5113745;28;20648;-63
2024/01/17 06:28:54;;;;;;;18.20;15.30;;;-3.20;1.00;;;;;;5113706;28;20593;-63
2024/01/17 06:31:24;;;;;;;17.37;14.93;;;-3.10;1.00;;;;;;5113563;28;20200;-63
2024/01/17 06:33:53;;;;;;;18.07;15.13;;;-3.10;1.00;;;;;;5113378;28;20191;-63
2024/01/17 06:36:19;;;;;;;16.80;15.07;;;-3.00;1.00;;;;;;5113489;28;20176;-63
2024/01/17 06:38:45;;;;;;;17.90;14.60;;;-3.00;1.00;;;;;;5113919;28;20204;-63
2024/01/17 06:41:11;;;;;;;16.33;14.77;;;-3.00;1.00;;;;;;5114029;28;20172;-64
2024/01/17 06:43:37;;;;;;;17.23;15.47;;;-2.90;1.00;;;;;;5113538;28;20487;-63
2024/01/17 06:46:03;;;;;;;16.20;14.77;;;-2.90;1.00;;;;;;5113407;28;20191;-63
2024/01/17 06:48:30;;;;;;;15.63;14.20;;;-2.90;1.00;;;;;;5112973;28;20192;-64
2024/01/17 06:50:56;;;;;;;17.70;15.63;;;-2.80;1.00;;;;;;5113314;28;20209;-63
2024/01/17 06:53:22;;;;;;;16.27;14.57;;;-2.80;1.00;;;;;;5113468;28;20177;-63
2024/01/17 06:55:48;;;;;;;17.37;14.23;;;-2.80;1.00;;;;;;5113598;28;20532;-63
2024/01/17 06:58:14;;;;;;;19.50;15.07;;;-2.80;1.00;;;;;;5113063;28;20204;-64
2024/01/17 07:00:44;;;;;;;17.10;14.57;;;-2.80;1.00;;;;;;5113205;28;20257;-64
2024/01/17 07:03:10;;;;;;;15.07;13.70;;;-2.80;1.00;;;;;;5113285;28;20168;-63
2024/01/17 07:05:36;;;;;;;16.60;14.57;;;-2.70;1.00;;;;;;5113082;28;20172;-63
2024/01/17 07:08:02;;;;;;;15.73;14.13;;;-2.70;1.00;;;;;;5113325;28;20534;-63
2024/01/17 07:10:28;;;;;;;14.67;13.23;;;-2.70;1.00;;;;;;5113028;28;20176;-64
2024/01/17 07:12:54;;;;;;;14.87;13.53;;;-2.70;1.00;;;;;;5113348;28;20243;-63
2024/01/17 07:15:21;;;;;;;16.20;13.90;;;-2.70;1.00;;;;;;5113347;28;20213;-63
2024/01/17 07:17:47;;;;;;;18.17;13.67;;;-2.70;1.00;;;;;;5111517;28;20207;-63
2024/01/17 07:20:13;;;;;;;16.37;14.63;;;-2.70;1.00;;;;;;5113482;28;20498;-63
2024/01/17 07:22:42;;;;;;;14.47;13.13;;;-2.70;1.00;;;;;;5112973;28;20165;-63
2024/01/17 07:25:13;;;;;;;14.77;13.27;;;-2.70;1.00;;;;;;5111591;28;20172;-64
2024/01/17 07:27:45;;;;;;;14.17;12.73;;;-2.60;1.00;;;;;;5112850;28;20672;-63
2024/01/17 07:30:12;;;;;;;14.83;13.43;;;-2.60;1.00;;;;;;5111485;28;20177;-63
2024/01/17 07:32:38;;;;;;;15.23;13.60;;;-2.60;1.00;;;;;;5113791;28;20203;-64
2024/01/17 07:35:04;;;;;;;17.37;14.07;;;-2.50;1.00;;;;;;5117034;28;20165;-63
2024/01/17 07:37:31;;;;;;;19.23;14.73;;;-2.50;1.00;;;;;;5116890;28;20188;-63
2024/01/17 07:39:57;;;;;;;19.30;13.93;;;-2.50;1.00;;;;;;5117191;28;20169;-64
2024/01/17 07:42:23;;;;;;;16.80;14.93;;;-2.50;1.00;;;;;;5116876;28;20192;-63
2024/01/17 07:44:49;;;;;;;16.53;14.87;;;-2.50;1.00;;;;;;5117316;28;20284;-63
2024/01/17 07:47:15;;;;;;;17.00;15.20;;;-2.50;1.00;;;;;;5116483;28;20192;-64
2024/01/17 07:49:42;;;;;;;16.53;14.80;;;-2.50;1.00;;;;;;5117246;28;20691;-63
2024/01/17 07:52:08;;;;;;;17.83;15.40;;;-2.50;1.00;;;;;;5116648;28;20196;-63
2024/01/17 07:54:34;;;;;;;16.70;14.63;;;-2.50;1.00;;;;;;5115963;28;20204;-64
2024/01/17 07:57:00;;;;;;;15.37;13.77;;;-2.40;1.00;;;;;;5116652;28;20299;-64
2024/01/17 07:59:27;;;;;;;16.77;14.70;;;-2.40;1.00;;;;;;5117386;28;20200;-64
2024/01/17 08:01:54;;;;;;;16.60;14.83;;;-2.40;1.00;;;;;;5115510;28;20184;-61
2024/01/17 08:04:20;;;;;;;18.13;14.97;;;-2.40;1.00;;;;;;5115827;28;20177;-62
2024/01/17 08:06:47;;;;;;;16.57;14.97;;;-2.40;1.00;;;;;;5117102;28;20672;-62
2024/01/17 08:09:22;;;;;;;17.23;15.47;;;-2.40;1.00;;;;;;5117176;28;20278;-62
2024/01/17 08:11:49;;;;;;;17.10;15.50;;;-2.40;1.00;;;;;;5117266;28;20152;-62
2024/01/17 08:14:15;;;;;;;17.57;15.20;;;-2.40;1.00;;;;;;5116970;28;20192;-62
2024/01/17 08:16:41;;;;;;;17.30;15.50;;;-2.30;1.00;;;;;;5117195;28;20203;-61
2024/01/17 08:19:07;;;;;;;17.93;15.40;;;-2.30;1.00;;;;;;5116697;27;20196;-62
2024/01/17 08:21:33;;;;;;;18.53;16.60;;;-2.30;1.00;;;;;;5117087;28;20520;-62
2024/01/17 08:23:59;;;;;;;20.53;16.57;;;-2.30;1.00;;;;;;5116840;28;20629;-62
2024/01/17 08:26:25;;;;;;;17.20;14.80;;;-2.20;15.50;;;;;;5116239;28;20164;-62
2024/01/17 08:28:51;;;;;;;16.33;14.70;;;-2.20;22.70;;;;;;5116632;28;20271;-62
2024/01/17 08:31:17;;;;;;;20.73;17.10;;;-2.20;59.40;;;;;;5115370;28;20184;-62
2024/01/17 08:33:43;;;;;;;18.20;16.50;;;-2.20;50.60;;;;;;5116216;27;20225;-61
2024/01/17 08:36:08;;;;;;;19.70;16.70;;;-2.20;70.50;;;;;;5115994;28;20359;-62
2024/01/17 08:38:35;;;;;;;18.20;16.07;;;-2.20;80.30;;;;;;5116230;28;20699;-62
2024/01/17 08:41:01;;;;;;;22.13;16.63;;;-2.10;82.60;;;;;;5116368;28;20187;-62
2024/01/17 08:43:27;;;;;;;23.37;18.00;;;-2.10;99.90;;;;;;5116235;28;20176;-62
2024/01/17 08:45:52;;;;;;;20.17;17.67;;;-2.10;99.90;;;;;;5115494;28;20173;-61
2024/01/17 08:48:19;;;;;;;18.13;15.70;;;-2.10;99.90;;;;;;5115820;28;20241;-62
2024/01/17 08:50:45;;;;;;;19.97;16.67;;;-2.10;99.90;;;;;;5116130;28;20598;-62
2024/01/17 08:53:11;;;;;;;22.27;17.07;;;-2.10;99.90;;;;;;5116195;28;20168;-62
2024/01/17 08:55:36;;;;;;;22.53;17.33;;;-2.10;99.90;;;;;;5116170;28;20179;-62
2024/01/17 08:58:02;;;;;;;17.80;15.97;;;-2.10;92.60;;;;;;5115959;28;20230;-62
2024/01/17 09:00:28;;;;;;;18.23;16.00;;;-2.10;63.80;;;;;;5115976;27;20176;-61
2024/01/17 09:02:54;;;;;;;16.83;15.13;;;-2.00;19.00;;;;;;5115711;28;20551;-62
2024/01/17 09:05:20;;;;;;;16.93;15.20;;;-1.90;2.00;;;;;;5115384;28;20230;-62
2024/01/17 09:07:48;;;;;;;17.13;15.50;;;-1.90;2.90;;;;;;5114407;28;20200;-62
2024/01/17 09:10:17;;;;;;;16.20;14.60;;;-1.80;1.00;;;;;;5115768;28;20214;-62
2024/01/17 09:12:44;;;;;;;15.33;13.67;;;-1.70;1.00;;;;;;5116246;28;20172;-62
2024/01/17 09:15:10;;;;;;;14.43;13.13;;;-1.70;1.00;;;;;;5116131;27;20192;-62
2024/01/17 09:17:36;;;;;;;14.43;13.13;;;-1.60;1.00;;;;;;5115052;28;20192;-61
2024/01/17 09:20:03;;;;;;;16.97;12.90;;;-1.50;99.90;;;;;;5115908;28;20177;-62
2024/01/17 09:22:29;;;;;;;13.63;12.33;;;-1.40;1.00;;;;;;5115844;28;20171;-62
2024/01/17 09:24:55;;;;;;;14.50;13.10;;;-1.30;99.90;;;;;;5115613;28;20544;-62
2024/01/17 09:27:20;;;;;;;17.00;13.23;;;-1.30;99.90;;;;;;5115676;28;20257;-62
2024/01/17 09:29:47;;;;;;;14.07;12.70;;;-1.20;99.90;;;;;;5115485;28;20188;-61
2024/01/17 09:32:13;;;;;;;14.30;12.40;;;-1.20;11.30;;;;;;5094758;28;20223;-61
2024/01/17 09:34:41;;;;;;;13.13;11.87;;;-1.10;57.70;;;;;;5094859;28;20177;-62
2024/01/17 09:37:06;;;;;;;14.40;13.00;;;-1.10;99.90;;;;;;5094797;28;20235;-62
2024/01/17 09:39:32;;;;;;;15.40;13.80;;;-1.00;1.00;;;;;;5094642;28;20229;-61
2024/01/17 09:42:05;;;;;;;12.83;11.60;;;-1.00;1.00;;;;;;5094202;28;20177;-61
2024/01/17 09:44:31;;;;;;;13.53;12.23;;;-1.00;1.00;;;;;;5094883;28;20177;-62
2024/01/17 09:47:01;;;;;;;13.50;12.20;;;-0.90;1.00;;;;;;5094845;28;20189;-62
2024/01/17 09:49:28;;;;;;;16.00;14.43;;;-0.90;34.80;;;;;;5094232;28;20256;-62
2024/01/17 09:51:54;;;;;;;16.23;14.23;;;-0.80;1.00;;;;;;5093901;28;20197;-62
2024/01/17 09:54:24;;;;;;;16.83;13.80;;;-0.70;46.10;;;;;;5093180;28;20177;-62
2024/01/17 09:56:52;;;;;;;14.73;13.33;;;-0.70;1.00;;;;;;5094506;28;20690;-61
2024/01/17 09:59:25;;;;;;;16.53;12.80;;;-0.70;1.00;;;;;;5094422;28;20192;-61
2024/01/17 10:01:52;;;;;;;16.47;13.17;;;-0.70;1.00;;;;;;5094233;28;20205;-62
2024/01/17 10:04:19;;;;;;;13.30;11.93;;;-0.60;1.00;;;;;;5094162;28;20158;-61
2024/01/17 10:06:48;;;;;;;14.60;13.00;;;-0.60;1.00;;;;;;5094517;28;20706;-62
2024/01/17 10:09:14;;;;;;;14.03;12.83;;;-0.50;1.00;;;;;;5094488;28;20201;-61
2024/01/17 10:11:40;;;;;;;14.73;13.43;;;-0.50;1.00;;;;;;5094361;28;20169;-61
2024/01/17 10:14:07;;;;;;;14.10;12.57;;;-0.40;1.00;;;;;;5094037;28;20177;-61
2024/01/17 10:16:34;;;;;;;13.50;12.30;;;-0.40;1.00;;;;;;5094331;28;20717;-61
2024/01/17 10:19:04;;;;;;;13.47;12.20;;;-0.30;1.00;;;;;;5093713;28;20669;-61
2024/01/17 10:21:33;;;;;;;14.77;12.50;;;-0.30;99.90;;;;;;5094096;28;20630;-61
2024/01/17 10:23:59;;;;;;;14.23;12.40;;;-0.30;1.00;;;;;;5094365;28;20162;-61
2024/01/17 10:26:25;;;;;;;13.67;12.37;;;-0.20;97.80;;;;;;5094210;28;20176;-62
2024/01/17 10:28:52;;;;;;;14.97;13.47;;;-0.20;99.90;;;;;;5094298;28;20272;-63
2024/01/17 10:31:21;;;;;;;14.50;12.97;;;-0.20;99.90;;;;;;5093967;28;20181;-60
2024/01/17 10:33:51;;;;;;;14.70;13.33;;;-0.20;99.90;;;;;;5093808;28;20177;-60
2024/01/17 10:36:17;;;;;;;13.10;11.90;;;-0.20;99.90;;;;;;5094680;28;20201;-62
2024/01/17 10:38:44;;;;;;;13.43;12.23;;;-0.10;99.90;;;;;;5093224;28;20189;-63
2024/01/17 10:41:10;;;;;;;14.10;12.67;;;-0.10;99.90;;;;;;5093285;28;20264;-62
2024/01/17 10:43:56;;;;;;;13.77;12.17;;;-0.10;99.90;;;;;;5093700;28;20254;-62
2024/01/17 10:46:23;;;;;;;14.40;12.70;;;-0.10;99.90;;;;;;5093097;28;20169;-63
2024/01/17 10:48:49;;;;;;;16.77;13.10;;;-0.10;99.90;;;;;;5093559;28;20185;-63
2024/01/17 10:51:22;;;;;;;18.73;13.63;;;0.00;99.90;;;;;;5093366;28;20236;-62
2024/01/17 10:53:52;;;;;;;13.97;12.53;;;0.00;34.90;;;;;;5092290;28;20181;-63
2024/01/17 10:56:19;;;;;;;14.30;12.97;;;0.00;69.10;;;;;;5092842;28;20238;-62
2024/01/17 10:58:52;;;;;;;14.40;12.90;;;0.00;99.90;;;;;;5093069;28;20205;-62
2024/01/17 11:01:38;;;;;;;16.27;12.83;;;0.00;99.90;;;;;;5092804;28;20183;-62
2024/01/17 11:04:29;;;;;;;14.07;12.70;;;0.10;99.90;;;;;;5092758;28;20232;-63
2024/01/17 11:06:56;;;;;;;15.87;12.93;;;0.10;99.90;;;;;;5085097;28;20205;-63
2024/01/17 11:09:26;;;;;;;14.00;12.70;;;0.10;99.90;;;;;;5093388;28;20248;-63
2024/01/17 11:11:52;;;;;;;15.30;13.80;;;0.10;99.90;;;;;;5092769;28;20255;-63
2024/01/17 11:14:20;;;;;;;14.47;12.90;;;0.10;99.90;;;;;;5092596;28;20180;-62
2024/01/17 11:16:48;;;;;;;16.53;13.47;;;0.10;99.90;;;;;;5091319;28;20197;-62
2024/01/17 11:19:16;;;;;;;15.13;13.57;;;0.10;99.90;;;;;;5092299;28;20608;-62
2024/01/17 11:21:43;;;;;;;14.03;12.63;;;0.10;99.90;;;;;;5091348;28;20173;-62
2024/01/17 11:24:24;;;;;;;13.03;11.73;;;0.10;99.90;;;;;;5091376;28;20609;-62
2024/01/17 11:27:11;;;;;;;13.97;12.50;;;0.10;99.90;;;;;;5091335;28;20562;-62
2024/01/17 11:29:42;;;;;;;14.13;12.23;;;0.10;99.90;;;;;;5092658;28;20258;-62
2024/01/17 11:32:45;;;;;;;14.03;12.57;;;0.10;99.90;;;;;;5092562;28;20204;-63
2024/01/17 11:35:43;;;;;;;15.77;13.57;;;0.10;99.90;;;;;;5092986;28;20168;-63
2024/01/17 11:38:24;;;;;;;16.67;13.30;;;0.10;99.90;;;;;;5092338;28;20197;-62
2024/01/17 11:40:57;;;;;;;17.07;14.23;;;0.20;99.90;;;;;;5092680;28;20242;-61
2024/01/17 11:43:29;;;;;;;18.40;13.97;;;0.20;99.90;;;;;;5092483;28;20180;-63
2024/01/17 11:45:55;;;;;;;17.20;13.77;;;0.20;99.90;;;;;;5092443;28;20252;-62
2024/01/17 11:48:25;;;;;;;19.57;14.77;;;0.20;99.90;;;;;;5092105;28;20270;-62
2024/01/17 11:51:06;;;;;;;16.00;14.13;;;0.10;99.90;;;;;;5092327;28;20188;-64
2024/01/17 11:53:34;;;;;;;17.00;13.87;;;0.10;99.90;;;;;;5092465;28;20252;-63
2024/01/17 11:56:04;;;;;;;18.67;14.30;;;0.10;99.90;;;;;;5092256;28;20169;-62
2024/01/17 11:58:42;;;;;;;17.33;14.50;;;0.10;99.90;;;;;;5092613;28;20207;-63
2024/01/17 12:01:16;;;;;;;17.53;14.30;;;0.10;99.90;;;;;;5092225;28;20605;-62
2024/01/17 12:03:42;;;;;;;16.33;13.97;;;0.00;99.90;;;;;;5092172;28;20287;-63
2024/01/17 12:06:10;;;;;;;16.70;13.27;;;0.00;99.90;;;;;;5092263;28;20181;-62
2024/01/17 12:08:37;;;;;;;15.13;12.97;;;0.00;99.90;;;;;;5092527;28;20211;-63
2024/01/17 12:11:03;;;;;;;15.03;13.60;;;0.10;99.90;;;;;;5092456;28;20181;-62
2024/01/17 12:13:29;;;;;;;15.40;13.80;;;0.10;99.90;;;;;;5090937;28;20192;-62
2024/01/17 12:15:57;;;;;;;17.20;14.73;;;0.20;99.90;;;;;;5092231;28;20177;-62
2024/01/17 12:18:24;;;;;;;17.97;14.10;;;0.30;99.90;;;;;;5092605;28;20208;-63
2024/01/17 12:20:51;;;;;;;16.23;14.03;;;0.30;1.00;;;;;;5095871;28;20281;-63
2024/01/17 12:23:19;;;;;;;16.17;14.17;;;0.30;99.90;;;;;;5094438;28;20310;-62
2024/01/17 12:25:45;;;;;;;17.17;14.17;;;0.30;99.90;;;;;;5095990;28;20154;-62
2024/01/17 12:28:18;;;;;;;15.93;14.23;;;0.30;1.00;;;;;;5095784;28;20322;-62
2024/01/17 12:31:05;;;;;;;17.03;14.53;;;0.30;1.00;;;;;;5096063;28;20177;-62